createdAt,value
2023-01-13T00:01:43.852Z,8.6
2023-01-13T00:03:46.988Z,8.7
2023-01-13T00:05:50.116Z,8.6
2023-01-13T00:07:53.244Z,8.5
2023-01-13T00:09:56.362Z,8.5
2023-01-13T00:12:02.654Z,8.4
2023-01-13T00:14:05.728Z,8.4
2023-01-13T00:16:08.948Z,8.4
2023-01-13T00:18:11.954Z,8.4
2023-01-13T00:20:15.100Z,8.4
2023-01-13T00:22:18.231Z,8.4
2023-01-13T00:24:21.331Z,8.4
2023-01-13T00:26:27.656Z,8.3
2023-01-13T00:28:30.753Z,8.3
2023-01-13T00:30:33.825Z,8.3
2023-01-13T00:32:36.923Z,8.3
2023-01-13T00:34:40.040Z,8.2
2023-01-13T00:36:43.138Z,8.2
2023-01-13T00:38:46.257Z,8.1
2023-01-13T00:40:52.615Z,8.1
2023-01-13T00:42:55.710Z,8.1
2023-01-13T00:44:58.806Z,8
2023-01-13T00:46:01.932Z,8
2023-01-13T00:48:05.068Z,8
2023-01-13T00:50:08.183Z,7.8
2023-01-13T00:52:11.279Z,7.8
2023-01-13T00:54:17.557Z,7.8
2023-01-13T00:56:34.148Z,7.8
2023-01-13T00:58:23.767Z,7.8
2023-01-13T01:00:26.909Z,7.7
2023-01-13T01:02:30.087Z,7.3
2023-01-13T01:04:33.117Z,7.8
2023-01-13T01:06:36.226Z,7.7
2023-01-13T01:08:42.521Z,7.8
2023-01-13T01:14:51.838Z,7.7
2023-01-13T01:29:16.850Z,7.8
2023-01-13T01:31:20.003Z,7.9
2023-01-13T01:33:23.038Z,7.9
2023-01-13T01:35:26.106Z,7.9
2023-01-13T01:37:32.465Z,7.9
2023-01-13T01:39:35.529Z,7.9
2023-01-13T01:41:38.640Z,7.9
2023-01-13T01:42:41.778Z,7.9
2023-01-13T01:44:44.932Z,7.9
2023-01-13T01:46:48.077Z,7.9
2023-01-13T01:48:51.141Z,7.9
2023-01-13T01:50:58.987Z,7.9
2023-01-13T01:53:02.021Z,7.9
2023-01-13T01:55:05.136Z,7.9
2023-01-13T01:57:08.236Z,7.8
2023-01-13T01:59:11.365Z,7.9
2023-01-13T02:01:14.617Z,7.8
2023-01-13T02:03:17.586Z,7.8
2023-01-13T02:05:23.855Z,7.8
2023-01-13T02:07:26.991Z,7.8
2023-01-13T02:09:30.103Z,7.8
2023-01-13T02:11:33.158Z,7.8
2023-01-13T02:13:36.280Z,7.8
2023-01-13T02:15:39.392Z,7.8
2023-01-13T02:17:42.492Z,7.7
2023-01-13T02:19:48.789Z,7.8
2023-01-13T02:21:51.932Z,7.7
2023-01-13T02:23:54.952Z,7.7
2023-01-13T02:25:58.101Z,7.7
2023-01-13T02:28:01.167Z,7.7
2023-01-13T02:30:04.293Z,7.7
2023-01-13T02:32:07.367Z,7.6
2023-01-13T02:34:13.679Z,7.6
2023-01-13T02:36:16.794Z,7.6
2023-01-13T02:38:19.895Z,7.5
2023-01-13T02:40:49.715Z,7.6
2023-01-13T02:42:52.761Z,7.6
2023-01-13T02:44:55.912Z,7.5
2023-01-13T02:47:02.205Z,7.5
2023-01-13T02:49:05.282Z,7.6
2023-01-13T02:51:08.370Z,7.4
2023-01-13T02:53:11.520Z,7.6
2023-01-13T02:55:14.607Z,7.5
2023-01-13T02:57:17.695Z,7.6
2023-01-13T02:59:20.823Z,7.6
2023-01-13T03:01:27.246Z,7.6
2023-01-13T03:03:30.239Z,7.5
2023-01-13T03:05:33.335Z,7.5
2023-01-13T03:07:36.440Z,7.6
2023-01-13T03:09:39.598Z,7.6
2023-01-13T03:11:42.684Z,7.6
2023-01-13T03:13:45.771Z,7.7
2023-01-13T03:15:52.093Z,7.5
2023-01-13T03:17:55.200Z,7.6
2023-01-13T03:19:58.304Z,7.4
2023-01-13T03:22:01.428Z,7.5
2023-01-13T03:24:04.517Z,7.5
2023-01-13T03:26:07.602Z,7.5
2023-01-13T03:28:10.732Z,7.5
2023-01-13T03:30:17.052Z,7.6
2023-01-13T03:32:20.164Z,7.7
2023-01-13T03:34:23.237Z,7.8
2023-01-13T03:35:26.400Z,7.8
2023-01-13T03:39:32.633Z,8
2023-01-13T03:41:35.717Z,8.2
2023-01-13T03:43:42.048Z,8.2
2023-01-13T03:45:45.189Z,8.3
2023-01-13T03:47:48.265Z,8.2
2023-01-13T03:49:51.349Z,8.3
2023-01-13T03:51:54.432Z,8.6
2023-01-13T03:53:57.541Z,8.4
2023-01-13T03:56:00.638Z,8.6
2023-01-13T03:58:07.052Z,8.5
2023-01-13T04:00:10.082Z,8.5
2023-01-13T04:02:13.324Z,8.6
2023-01-13T04:06:19.409Z,8.8
2023-01-13T04:08:22.518Z,8.7
2023-01-13T04:10:25.624Z,8.7
2023-01-13T04:12:31.938Z,8.7
2023-01-13T04:18:41.245Z,8.7
2023-01-13T04:22:47.507Z,8.6
2023-01-13T04:24:50.568Z,8.6
2023-01-13T04:26:56.904Z,8.6
2023-01-13T04:29:00.027Z,8.5
2023-01-13T04:31:03.158Z,8.4
2023-01-13T04:32:06.282Z,8.5
2023-01-13T04:34:09.392Z,8.5
2023-01-13T04:36:12.502Z,8.4
2023-01-13T04:40:21.937Z,8.5
2023-01-13T04:42:25.034Z,8.4
2023-01-13T04:46:31.333Z,8.3
2023-01-13T04:48:34.359Z,8.4
2023-01-13T04:50:37.481Z,8.4
2023-01-13T04:52:40.548Z,8.4
2023-01-13T04:54:46.885Z,8.3
2023-01-13T04:56:50.000Z,8.2
2023-01-13T04:58:53.111Z,8.3
2023-01-13T05:00:56.275Z,8.3
2023-01-13T05:02:59.323Z,8.3
2023-01-13T05:05:02.431Z,8.3
2023-01-13T05:07:05.519Z,8.3
2023-01-13T05:09:11.832Z,8.3
2023-01-13T05:11:14.939Z,8.2
2023-01-13T05:13:18.041Z,8.1
2023-01-13T05:15:21.141Z,8.2
2023-01-13T05:17:24.285Z,8.2
2023-01-13T05:23:36.791Z,8.1
2023-01-13T05:28:46.164Z,8.2
2023-01-13T05:30:49.646Z,8.2
2023-01-13T05:32:52.364Z,8.1
2023-01-13T05:34:55.485Z,8.2
2023-01-13T05:37:01.808Z,8.1
2023-01-13T05:39:04.907Z,8.1
2023-01-13T05:41:08.036Z,8
2023-01-13T05:43:11.160Z,8.1
2023-01-13T05:45:14.242Z,8.2
2023-01-13T05:47:17.352Z,8.1
2023-01-13T05:49:20.480Z,8.1
2023-01-13T05:51:26.771Z,8.1
2023-01-13T05:53:29.867Z,8.1
2023-01-13T05:55:32.976Z,8.1
2023-01-13T05:57:36.089Z,8.1
2023-01-13T05:59:39.170Z,8.2
2023-01-13T06:01:42.282Z,8.2
2023-01-13T06:03:45.409Z,8.2
2023-01-13T06:05:51.709Z,8.3
2023-01-13T06:07:54.820Z,8.2
2023-01-13T06:09:57.926Z,8.2
2023-01-13T06:12:01.014Z,8.3
2023-01-13T06:14:04.125Z,8.3
2023-01-13T06:16:07.243Z,8.2
2023-01-13T06:18:10.323Z,8.1
2023-01-13T06:22:19.729Z,8.2
2023-01-13T06:26:47.154Z,8.2
2023-01-13T06:28:50.244Z,8.2
2023-01-13T06:30:53.325Z,8.1
2023-01-13T06:32:59.655Z,8.2
2023-01-13T06:35:04.721Z,8.2
2023-01-13T06:37:05.830Z,8.1
2023-01-13T06:39:08.944Z,8.3
2023-01-13T06:41:12.040Z,8.3
2023-01-13T06:43:16.651Z,8.3
2023-01-13T06:45:18.247Z,8.4
2023-01-13T06:47:24.574Z,8.4
2023-01-13T06:49:27.642Z,8.4
2023-01-13T06:51:30.775Z,8.3
2023-01-13T06:53:33.863Z,8.3
2023-01-13T06:55:36.961Z,8.3
2023-01-13T06:57:40.059Z,8.2
2023-01-13T06:59:43.135Z,8.3
2023-01-13T07:01:49.804Z,8.2
2023-01-13T07:03:52.565Z,8.2
2023-01-13T07:05:55.656Z,8.3
2023-01-13T07:07:58.761Z,8.4
2023-01-13T07:10:01.939Z,8.4
2023-01-13T07:12:04.955Z,8.4
2023-01-13T07:14:08.079Z,8.4
2023-01-13T07:16:14.502Z,8.4
2023-01-13T07:18:17.463Z,8.5
2023-01-13T07:20:20.558Z,8.4
2023-01-13T07:21:23.705Z,8.4
2023-01-13T07:23:26.852Z,8.5
2023-01-13T07:25:29.938Z,8.5
2023-01-13T07:27:33.040Z,8.4
2023-01-13T07:31:42.457Z,8.4
2023-01-13T07:33:45.564Z,8.3
2023-01-13T07:35:48.647Z,8.4
2023-01-13T07:37:51.720Z,8.4
2023-01-13T07:39:54.812Z,8.4
2023-01-13T07:41:57.916Z,8.4
2023-01-13T07:44:04.254Z,8.4
2023-01-13T07:46:09.014Z,8.4
2023-01-13T07:48:11.939Z,8.4
2023-01-13T07:50:15.052Z,8.4
2023-01-13T07:52:18.171Z,8.5
2023-01-13T07:54:35.080Z,8.5
2023-01-13T07:56:24.355Z,8.5
2023-01-13T08:00:33.777Z,8.5
2023-01-13T08:02:36.918Z,8.4
2023-01-13T08:04:40.015Z,8.5
2023-01-13T08:06:43.086Z,8.5
2023-01-13T08:08:46.182Z,8.5
2023-01-13T08:10:49.277Z,8.5
2023-01-13T08:12:56.513Z,8.4
2023-01-13T08:14:58.672Z,8.3
2023-01-13T08:17:01.796Z,8.3
2023-01-13T08:18:04.953Z,8.4
2023-01-13T08:20:08.056Z,8.4
2023-01-13T08:22:11.153Z,8.3
2023-01-13T08:26:20.566Z,8.4
2023-01-13T08:28:23.638Z,8.4
2023-01-13T08:30:26.806Z,8.5
2023-01-13T08:32:29.859Z,8.6
2023-01-13T08:34:32.940Z,8.5
2023-01-13T08:36:36.031Z,8.7
2023-01-13T08:38:39.157Z,8.7
2023-01-13T08:40:45.468Z,8.7
2023-01-13T08:42:48.891Z,8.5
2023-01-13T08:44:51.635Z,8.5
2023-01-13T08:46:54.729Z,8.6
2023-01-13T08:48:57.826Z,8.6
2023-01-13T08:51:00.946Z,8.7
2023-01-13T08:53:04.018Z,8.6
2023-01-13T08:55:10.325Z,8.8
2023-01-13T08:57:13.469Z,8.7
2023-01-13T08:59:16.514Z,8.9
2023-01-13T09:01:19.713Z,8.7
2023-01-13T09:03:22.707Z,8.8
2023-01-13T09:05:25.830Z,8.8
2023-01-13T09:07:28.909Z,8.6
2023-01-13T09:09:35.220Z,8.6
2023-01-13T09:11:38.300Z,8.5
2023-01-13T09:13:41.391Z,8.4
2023-01-13T09:14:44.537Z,8.3
2023-01-13T09:16:47.643Z,8.3
2023-01-13T09:18:50.732Z,8.2
2023-01-13T09:20:53.860Z,7.9
2023-01-13T09:23:00.152Z,7.8
2023-01-13T09:25:03.248Z,7.8
2023-01-13T09:27:06.344Z,7.8
2023-01-13T09:29:09.434Z,7.7
2023-01-13T09:31:12.606Z,7.7
2023-01-13T09:33:15.585Z,7.7
2023-01-13T09:35:18.708Z,7.7
2023-01-13T09:37:24.990Z,7.7
2023-01-13T09:39:28.086Z,7.6
2023-01-13T09:41:31.163Z,7.7
2023-01-13T09:43:34.252Z,7.8
2023-01-13T09:45:37.330Z,7.8
2023-01-13T09:47:40.403Z,7.7
2023-01-13T09:51:49.804Z,7.7
2023-01-13T09:53:52.896Z,7.8
2023-01-13T09:55:56.009Z,7.8
2023-01-13T09:57:59.078Z,7.7
2023-01-13T10:00:02.176Z,7.6
2023-01-13T10:02:05.268Z,7.6
2023-01-13T10:04:09.243Z,7.7
2023-01-13T10:06:14.639Z,7.7
2023-01-13T10:08:17.733Z,7.7
2023-01-13T10:10:20.831Z,7.9
2023-01-13T10:12:50.645Z,7.8
2023-01-13T10:14:53.761Z,7.8
2023-01-13T10:16:56.828Z,7.9
2023-01-13T10:19:03.104Z,7.8
2023-01-13T10:21:06.200Z,7.7
2023-01-13T10:23:09.268Z,7.8
2023-01-13T10:25:12.387Z,7.8
2023-01-13T10:29:18.567Z,7.9
2023-01-13T10:33:28.078Z,7.8
2023-01-13T10:35:31.029Z,7.8
2023-01-13T10:41:40.277Z,7.8
2023-01-13T10:45:46.431Z,7.6
2023-01-13T10:47:52.719Z,7.4
2023-01-13T10:51:58.986Z,7.5
2023-01-13T10:54:01.970Z,7.5
2023-01-13T10:56:05.027Z,7.6
2023-01-13T10:58:08.111Z,7.5
2023-01-13T11:00:11.182Z,7.5
2023-01-13T11:02:25.435Z,7.5
2023-01-13T11:04:20.549Z,7.5
2023-01-13T11:06:23.653Z,7.8
2023-01-13T11:07:28.334Z,8
2023-01-13T11:09:29.874Z,8.2
2023-01-13T11:11:32.949Z,8.1
2023-01-13T11:13:36.025Z,8
2023-01-13T11:15:42.431Z,8.1
2023-01-13T11:19:48.518Z,8.1
2023-01-13T11:23:54.662Z,8
2023-01-13T11:25:57.773Z,8
2023-01-13T11:28:00.883Z,8.1
2023-01-13T11:30:07.131Z,8.1
2023-01-13T11:32:10.221Z,8.2
2023-01-13T11:34:13.312Z,8.2
2023-01-13T11:36:17.769Z,8.4
2023-01-13T11:38:19.498Z,8.4
2023-01-13T11:40:22.561Z,8.3
2023-01-13T11:42:25.665Z,8.4
2023-01-13T11:46:35.192Z,8.4
2023-01-13T11:48:38.181Z,8.5
2023-01-13T11:50:41.291Z,8.5
2023-01-13T11:52:44.393Z,8.6
2023-01-13T11:54:47.484Z,8.5
2023-01-13T11:56:50.551Z,8.5
2023-01-13T11:58:56.869Z,8.6
2023-01-13T12:01:00.050Z,8.7
2023-01-13T12:03:03.146Z,8.7
2023-01-13T12:04:06.253Z,8.7
2023-01-13T12:06:09.325Z,8.6
2023-01-13T12:08:12.416Z,8.6
2023-01-13T12:10:15.501Z,8.6
2023-01-13T12:12:21.905Z,8.7
2023-01-13T12:14:25.000Z,8.7
2023-01-13T12:16:28.164Z,8.8
2023-01-13T12:18:31.166Z,8.7
2023-01-13T12:20:34.268Z,8.8
2023-01-13T12:22:37.393Z,8.8
2023-01-13T12:26:46.814Z,8.9
2023-01-13T12:28:49.950Z,8.8
2023-01-13T12:30:53.029Z,8.8
2023-01-13T12:32:56.122Z,9
2023-01-13T12:34:59.220Z,8.9
2023-01-13T12:37:02.319Z,9
2023-01-13T12:39:05.452Z,9
2023-01-13T12:41:11.762Z,9
2023-01-13T12:43:14.847Z,9
2023-01-13T12:45:18.641Z,9.1
2023-01-13T12:49:24.186Z,9.1
2023-01-13T12:51:27.285Z,9.2
2023-01-13T12:53:30.414Z,9.1
2023-01-13T12:59:42.924Z,9.3
2023-01-13T13:00:46.168Z,9.2
2023-01-13T13:02:49.286Z,9.3
2023-01-13T13:04:52.281Z,9.3
2023-01-13T13:06:55.407Z,9.3
2023-01-13T13:09:03.645Z,9.3
2023-01-13T13:11:04.837Z,9.3
2023-01-13T13:13:07.974Z,9.3
2023-01-13T13:17:14.178Z,9.4
2023-01-13T13:21:20.403Z,9.5
2023-01-13T13:23:26.732Z,9.5
2023-01-13T13:25:29.844Z,9.4
2023-01-13T13:27:32.957Z,9.6
2023-01-13T13:29:36.061Z,9.6
2023-01-13T13:35:45.413Z,9.5
2023-01-13T13:39:54.828Z,9.6
2023-01-13T13:41:59.531Z,9.7
2023-01-13T13:44:02.598Z,9.7
2023-01-13T13:46:05.762Z,9.7
2023-01-13T13:48:08.817Z,9.7
2023-01-13T13:52:18.271Z,9.6
2023-01-13T13:56:24.477Z,9.7
2023-01-13T14:05:06.869Z,9.8
2023-01-13T14:07:09.899Z,9.8
2023-01-13T14:09:13.004Z,9.8
2023-01-13T14:11:16.115Z,9.8
2023-01-13T14:13:19.249Z,9.7
2023-01-13T14:15:23.806Z,9.7
2023-01-13T14:17:25.436Z,9.8
2023-01-13T14:21:34.864Z,9.8
2023-01-13T14:23:37.987Z,9.8
2023-01-13T14:25:41.111Z,9.8
2023-01-13T14:27:44.224Z,9.7
2023-01-13T14:29:47.315Z,9.8
2023-01-13T14:31:50.426Z,9.8
2023-01-13T14:33:56.752Z,9.7
2023-01-13T14:38:03.012Z,9.6
2023-01-13T14:40:06.131Z,9.7
2023-01-13T14:42:09.230Z,9.6
2023-01-13T14:44:12.344Z,9.6
2023-01-13T14:50:26.631Z,9.6
2023-01-13T14:52:28.038Z,9.6
2023-01-13T14:55:34.349Z,9.6
2023-01-13T14:57:37.458Z,9.6
2023-01-13T14:59:40.543Z,9.7
2023-01-13T15:01:46.950Z,9.7
2023-01-13T15:03:49.988Z,9.5
2023-01-13T15:05:53.101Z,9.7
2023-01-13T15:07:56.237Z,9.5
2023-01-13T15:09:59.336Z,9.6
2023-01-13T15:14:05.567Z,9.5
2023-01-13T15:18:15.003Z,9.5
2023-01-13T15:24:24.357Z,9.4
2023-01-13T15:30:36.891Z,9.2
2023-01-13T15:34:43.128Z,9.2
2023-01-13T15:38:49.392Z,9.3
2023-01-13T15:42:55.587Z,9.2
2023-01-13T15:47:05.060Z,9.3
2023-01-13T15:49:08.156Z,9.3
2023-01-13T15:58:28.276Z,9.3
2023-01-13T16:02:33.205Z,9.4
2023-01-13T16:04:36.371Z,8.9
2023-01-13T16:06:39.476Z,9.4
2023-01-13T16:10:45.678Z,9.4
2023-01-13T16:12:51.997Z,9.3
2023-01-13T16:14:55.119Z,9.2
2023-01-13T16:16:58.254Z,9.2
2023-01-13T16:19:01.386Z,9.2
2023-01-13T16:21:04.495Z,9.1
2023-01-13T16:29:20.143Z,9.2
2023-01-13T16:31:23.279Z,9.2
2023-01-13T16:33:26.407Z,9.2
2023-01-13T16:43:45.250Z,9.1
2023-01-13T16:45:48.391Z,9.2
2023-01-13T16:48:54.686Z,9.2
2023-01-13T16:50:57.786Z,9.1
2023-01-13T16:53:00.908Z,9.1
2023-01-13T16:57:10.370Z,9
2023-01-13T16:59:13.466Z,9.1
2023-01-13T17:11:35.433Z,9
2023-01-13T17:17:44.793Z,8.9
2023-01-13T17:19:47.941Z,8.9
2023-01-13T17:21:51.042Z,8.9
2023-01-13T17:23:57.349Z,8.8
2023-01-13T17:26:00.481Z,8.9
2023-01-13T17:28:03.586Z,8.9
2023-01-13T17:30:06.703Z,8.8
2023-01-13T17:32:09.823Z,8.9
2023-01-13T17:34:12.926Z,8.7
2023-01-13T17:36:16.028Z,8.6
2023-01-13T17:38:22.348Z,8.4
2023-01-13T17:40:25.448Z,8.5
2023-01-13T17:42:28.579Z,8.4
2023-01-13T17:44:56.383Z,8.2
2023-01-13T17:46:59.523Z,8.2
2023-01-13T17:49:02.628Z,8.2
2023-01-13T17:51:08.930Z,8.2
2023-01-13T17:53:12.049Z,8.1
2023-01-13T17:55:15.193Z,8.2
2023-01-13T17:57:18.295Z,8.1
2023-01-13T17:59:21.394Z,8.1
2023-01-13T18:01:24.613Z,8.1
2023-01-13T18:03:27.649Z,8.1
2023-01-13T18:05:33.961Z,8
2023-01-13T18:07:37.045Z,8
2023-01-13T18:11:43.283Z,8.1
2023-01-13T18:13:46.363Z,8
2023-01-13T18:19:58.932Z,8
2023-01-13T18:24:05.152Z,8
2023-01-13T18:26:08.281Z,7.9
2023-01-13T18:30:14.493Z,8
2023-01-13T18:34:23.935Z,8.2
2023-01-13T18:36:27.007Z,8.1
2023-01-13T18:38:30.139Z,8.1
2023-01-13T18:41:36.427Z,8
2023-01-13T18:43:39.515Z,7.9
2023-01-13T18:45:42.620Z,7.9
2023-01-13T18:47:48.952Z,8
2023-01-13T18:49:52.071Z,7.8
2023-01-13T18:58:04.486Z,7.8
2023-01-13T19:00:07.572Z,7.8
2023-01-13T19:02:14.008Z,7.7
2023-01-13T19:04:16.982Z,7.8
2023-01-13T19:06:20.079Z,7.7
2023-01-13T19:08:23.191Z,7.7
2023-01-13T19:10:26.270Z,7.7
2023-01-13T19:12:29.394Z,7.7
2023-01-13T19:16:38.802Z,7.6
2023-01-13T19:18:41.920Z,7.5
2023-01-13T19:20:44.994Z,7.5
2023-01-13T19:22:48.175Z,7.5
2023-01-13T19:24:51.210Z,7.5
2023-01-13T19:26:54.278Z,7.5
2023-01-13T19:28:57.384Z,7.5
2023-01-13T19:31:03.764Z,7.5
2023-01-13T19:33:06.815Z,7.4
2023-01-13T19:35:09.878Z,7.5
2023-01-13T19:36:14.628Z,7.5
2023-01-13T19:38:17.713Z,7.5
2023-01-13T19:40:20.819Z,7.6
2023-01-13T19:42:23.872Z,7.5
2023-01-13T19:44:30.207Z,7.5
2023-01-13T19:46:33.375Z,7.4
2023-01-13T19:48:36.402Z,7.5
2023-01-13T19:50:39.491Z,7.4
2023-01-13T19:52:42.600Z,7.4
2023-01-13T19:54:45.687Z,7.6
2023-01-13T19:56:48.759Z,7.5
2023-01-13T19:58:55.050Z,7.5
2023-01-13T20:00:58.202Z,7.5
2023-01-13T20:03:01.288Z,7.5
2023-01-13T20:05:04.323Z,7.5
2023-01-13T20:09:10.528Z,7.5
2023-01-13T20:11:13.620Z,7.6
2023-01-13T20:13:19.922Z,7.6
2023-01-13T20:15:23.026Z,7.5
2023-01-13T20:17:26.101Z,7.6
2023-01-13T20:19:29.150Z,7.6
2023-01-13T20:21:32.243Z,7.6
2023-01-13T20:23:35.359Z,7.6
2023-01-13T20:25:38.510Z,7.5
2023-01-13T20:27:44.731Z,7.6
2023-01-13T20:29:47.797Z,7.6
2023-01-13T20:31:50.898Z,7.8
2023-01-13T20:37:00.280Z,7.9
2023-01-13T20:39:03.327Z,7.9
2023-01-13T20:43:12.757Z,7.9
2023-01-13T20:45:15.833Z,7.8
2023-01-13T20:47:18.937Z,7.8
2023-01-13T20:51:25.139Z,7.8
2023-01-13T20:53:28.221Z,7.7
2023-01-13T20:55:34.496Z,7.8
2023-01-13T20:57:37.618Z,7.9
2023-01-13T20:59:40.704Z,7.8
2023-01-13T21:01:43.939Z,7.8
2023-01-13T21:05:49.999Z,7.9
2023-01-13T21:07:53.098Z,7.7
2023-01-13T21:12:02.491Z,7.8
2023-01-13T21:14:05.612Z,7.7
2023-01-13T21:16:08.745Z,7.8
2023-01-13T21:18:11.761Z,7.7
2023-01-13T21:20:14.877Z,7.7
2023-01-13T21:22:17.964Z,7.6
2023-01-13T21:28:30.470Z,7.8
2023-01-13T21:31:00.321Z,7.8
2023-01-13T21:33:03.415Z,7.7
2023-01-13T21:35:06.504Z,7.8
2023-01-13T21:37:12.816Z,7.7
2023-01-13T21:39:15.895Z,7.7
2023-01-13T21:41:18.997Z,7.8
2023-01-13T21:43:22.121Z,7.7
2023-01-13T21:45:25.186Z,7.6
2023-01-13T21:49:31.376Z,7.6
2023-01-13T21:51:37.671Z,7.7
2023-01-13T21:53:40.811Z,7.8
2023-01-13T21:55:43.894Z,7.8
2023-01-13T21:57:47.006Z,7.7
2023-01-13T21:59:50.099Z,7.7
2023-01-13T22:03:56.253Z,7.6
2023-01-13T22:06:02.642Z,7.6
2023-01-13T22:08:05.640Z,7.5
2023-01-13T22:10:08.754Z,7.7
2023-01-13T22:12:11.801Z,7.7
2023-01-13T22:14:14.915Z,7.5
2023-01-13T22:16:18.028Z,7.6
2023-01-13T22:18:21.105Z,7.7
2023-01-13T22:20:27.347Z,7.7
2023-01-13T22:22:30.457Z,7.6
2023-01-13T22:24:33.662Z,7.7
2023-01-13T22:25:36.684Z,7.7
2023-01-13T22:27:39.639Z,7.8
2023-01-13T22:29:42.731Z,7.8
2023-01-13T22:31:45.884Z,7.8
2023-01-13T22:33:52.095Z,8
2023-01-13T22:35:55.220Z,7.9
2023-01-13T22:40:01.445Z,8
2023-01-13T22:42:04.507Z,7.9
2023-01-13T22:44:07.594Z,8
2023-01-13T22:46:10.751Z,8.1
2023-01-13T22:48:16.997Z,8
2023-01-13T22:50:20.102Z,8
2023-01-13T22:52:23.218Z,7.9
2023-01-13T22:54:26.319Z,8
2023-01-13T22:56:29.396Z,8.1
2023-01-13T22:58:32.496Z,8
2023-01-13T23:00:35.618Z,8
2023-01-13T23:02:42.043Z,8
2023-01-13T23:04:45.062Z,7.9
2023-01-13T23:06:48.103Z,8
2023-01-13T23:08:51.239Z,7.9
2023-01-13T23:10:54.326Z,7.9
2023-01-13T23:12:57.423Z,7.9
2023-01-13T23:15:00.494Z,8
2023-01-13T23:19:09.900Z,7.8
2023-01-13T23:21:13.005Z,7.9
2023-01-13T23:22:16.156Z,8
2023-01-13T23:24:19.257Z,7.9
2023-01-13T23:26:22.413Z,7.9
2023-01-13T23:28:25.469Z,7.9
2023-01-13T23:30:31.798Z,7.8
2023-01-13T23:32:34.836Z,7.8
2023-01-13T23:34:37.959Z,7.8
2023-01-13T23:36:41.052Z,7.8
2023-01-13T23:38:44.140Z,7.7
2023-01-13T23:40:47.256Z,7.7
2023-01-13T23:42:50.346Z,7.7
2023-01-13T23:44:56.642Z,7.6
2023-01-13T23:46:59.708Z,7.7
2023-01-13T23:49:02.787Z,7.8
2023-01-13T23:51:05.879Z,7.7
2023-01-13T23:53:08.992Z,7.6
2023-01-13T23:55:12.088Z,7.7
2023-01-13T23:57:15.186Z,7.7
2023-01-13T23:59:21.477Z,7.7
